Georg Jacob — A8XG5 — position and weather

sailwx.info

Track history (hours):
 
Tides and Currents Weather Stations Pressure Air Temp Water Temp Dewpoint Dewpoint Depression Visibility Wind Speed Wind Dir Waves Ship Positions

Georg Jacob

Last reported at 2014-Nov-24 21:33 UTC. Time now 2014-Nov-24 21:37 UTC.
Position N 52°25' E 004°50'.

Length 229 m; draft 8.5 m.

Type: Ship. MMSI: 636092136.

Date/timePositionNaut miles runAvg speedWind from/ knotsBaromVisibWave heightAir tempDewpointWater temp
2014-Nov-24 21:33N 52°25' E 004°50'0 0.0
2014-Nov-24 20:33N 52°25' E 004°50'0 0.0
2014-Nov-24 19:33N 52°25' E 004°50'0 0.0
2014-Nov-24 18:34N 52°25' E 004°50'3 3.4
2014-Nov-24 17:34N 52°26' E 004°45'6 5.7
2014-Nov-24 16:33N 52°28' E 004°36'3 3.2
2014-Nov-24 15:34N 52°28' E 004°31'7 7.3
2014-Nov-24 14:34N 52°29' E 004°19'2 2.1
2014-Nov-24 13:31N 52°32' E 004°20'0 0.1
2014-Nov-24 12:33N 52°32' E 004°20'0 0.0
2014-Nov-24 11:33N 52°32' E 004°20'2 2.2
2014-Nov-24 10:33N 52°29' E 004°19'8 8.0
2014-Nov-24 09:33N 52°29' E 004°06'1010.0
2014-Nov-24 08:33N 52°26' E 003°50'1110.3
2014-Nov-24 07:32N 52°24' E 003°33'4511.2
2014-Nov-24 03:29N 51°51' E 002°43'1212.3
2014-Nov-24 02:30N 51°42' E 002°30'1212.2
2014-Nov-24 01:33N 51°33' E 002°18'1111.5
2014-Nov-24 00:33N 51°23' E 002°10'1110.9
2014-Nov-23 23:33N 51°13' E 002°03'1111.2
2014-Nov-23 22:33N 51°08' E 001°47'9 9.4
2014-Nov-23 21:33N 51°01' E 001°36'8 8.0
2014-Nov-23 20:34N 50°55' E 001°28'7 6.8
2014-Nov-23 19:33N 50°48' E 001°25'8 7.4
2014-Nov-23 18:31N 50°41' E 001°20'8 8.4
2014-Nov-23 17:33N 50°36' E 001°10'9 8.5
2014-Nov-23 16:31N 50°30' E 001°00'8 8.6
2014-Nov-23 15:33N 50°27' E 000°48'10 9.0
2014-Nov-23 14:23N 50°25' E 000°32'  
Track history (hours):
 
Tides and Currents Weather Stations Pressure Air Temp Water Temp Dewpoint Dewpoint Depression Visibility Wind Speed Wind Dir Waves Ship Positions

Georg Jacob

Last reported at 2014-Nov-24 21:33 UTC. Time now 2014-Nov-24 21:37 UTC.
Position N 52°25' E 004°50'.

Length 229 m; draft 8.5 m.

Type: Ship. MMSI: 636092136.

Date/timePositionNaut miles runAvg speedWind from/ knotsBaromVisibWave heightAir tempDewpointWater temp
2014-Nov-24 21:33N 52°25' E 004°50'0 0.0
2014-Nov-24 20:33N 52°25' E 004°50'0 0.0
2014-Nov-24 19:33N 52°25' E 004°50'0 0.0
2014-Nov-24 18:34N 52°25' E 004°50'3 3.4
2014-Nov-24 17:34N 52°26' E 004°45'6 5.7
2014-Nov-24 16:33N 52°28' E 004°36'3 3.2
2014-Nov-24 15:34N 52°28' E 004°31'7 7.3
2014-Nov-24 14:34N 52°29' E 004°19'2 2.1
2014-Nov-24 13:31N 52°32' E 004°20'0 0.1
2014-Nov-24 12:33N 52°32' E 004°20'0 0.0
2014-Nov-24 11:33N 52°32' E 004°20'2 2.2
2014-Nov-24 10:33N 52°29' E 004°19'8 8.0
2014-Nov-24 09:33N 52°29' E 004°06'1010.0
2014-Nov-24 08:33N 52°26' E 003°50'1110.3
2014-Nov-24 07:32N 52°24' E 003°33'4511.2
2014-Nov-24 03:29N 51°51' E 002°43'1212.3
2014-Nov-24 02:30N 51°42' E 002°30'1212.2
2014-Nov-24 01:33N 51°33' E 002°18'1111.5
2014-Nov-24 00:33N 51°23' E 002°10'1110.9
2014-Nov-23 23:33N 51°13' E 002°03'1111.2
2014-Nov-23 22:33N 51°08' E 001°47'9 9.4
2014-Nov-23 21:33N 51°01' E 001°36'8 8.0
2014-Nov-23 20:34N 50°55' E 001°28'7 6.8
2014-Nov-23 19:33N 50°48' E 001°25'8 7.4
2014-Nov-23 18:31N 50°41' E 001°20'8 8.4
2014-Nov-23 17:33N 50°36' E 001°10'9 8.5
2014-Nov-23 16:31N 50°30' E 001°00'8 8.6
2014-Nov-23 15:33N 50°27' E 000°48'10 9.0
2014-Nov-23 14:23N 50°25' E 000°32'  

Dump ship's entire track history